sensor_id;sensor_type;location;lat;lon;timestamp;P1;durP1;ratioP1;P2;durP2;ratioP2
85279;SDS011;75687;40.670;21.838;2024-02-04T00:01:13;4.60;;;3.20;;
85279;SDS011;75687;40.670;21.838;2024-02-04T00:03:59;3.00;;;1.90;;
85279;SDS011;75687;40.670;21.838;2024-02-04T00:06:29;3.00;;;1.90;;
85279;SDS011;75687;40.670;21.838;2024-02-04T00:09:00;3.10;;;1.50;;
85279;SDS011;75687;40.670;21.838;2024-02-04T00:11:31;3.70;;;2.10;;
85279;SDS011;75687;40.670;21.838;2024-02-04T00:14:02;3.10;;;2.00;;
85279;SDS011;75687;40.670;21.838;2024-02-04T00:16:33;2.80;;;1.40;;
85279;SDS011;75687;40.670;21.838;2024-02-04T00:19:03;2.70;;;2.30;;
85279;SDS011;75687;40.670;21.838;2024-02-04T00:21:34;2.30;;;1.30;;
85279;SDS011;75687;40.670;21.838;2024-02-04T00:24:05;2.10;;;1.40;;
85279;SDS011;75687;40.670;21.838;2024-02-04T00:26:36;3.10;;;2.30;;
85279;SDS011;75687;40.670;21.838;2024-02-04T00:31:36;2.90;;;1.40;;
85279;SDS011;75687;40.670;21.838;2024-02-04T00:34:06;3.00;;;1.50;;
85279;SDS011;75687;40.670;21.838;2024-02-04T00:36:37;2.90;;;1.80;;
85279;SDS011;75687;40.670;21.838;2024-02-04T00:39:08;3.50;;;1.50;;
85279;SDS011;75687;40.670;21.838;2024-02-04T00:44:07;2.40;;;1.40;;
85279;SDS011;75687;40.670;21.838;2024-02-04T00:46:37;3.20;;;1.70;;
85279;SDS011;75687;40.670;21.838;2024-02-04T00:49:08;2.40;;;2.20;;
85279;SDS011;75687;40.670;21.838;2024-02-04T00:51:39;5.70;;;2.10;;
85279;SDS011;75687;40.670;21.838;2024-02-04T00:54:09;2.80;;;1.50;;
85279;SDS011;75687;40.670;21.838;2024-02-04T00:56:40;2.60;;;1.40;;
85279;SDS011;75687;40.670;21.838;2024-02-04T00:59:10;3.40;;;1.60;;
85279;SDS011;75687;40.670;21.838;2024-02-04T01:01:41;2.60;;;1.70;;
85279;SDS011;75687;40.670;21.838;2024-02-04T01:04:12;3.30;;;1.70;;
85279;SDS011;75687;40.670;21.838;2024-02-04T01:06:42;4.90;;;1.90;;
85279;SDS011;75687;40.670;21.838;2024-02-04T01:09:19;2.90;;;1.60;;
85279;SDS011;75687;40.670;21.838;2024-02-04T01:11:49;3.30;;;1.90;;
85279;SDS011;75687;40.670;21.838;2024-02-04T01:14:21;2.80;;;1.60;;
85279;SDS011;75687;40.670;21.838;2024-02-04T01:16:51;2.10;;;1.60;;
85279;SDS011;75687;40.670;21.838;2024-02-04T01:19:22;2.50;;;1.30;;
85279;SDS011;75687;40.670;21.838;2024-02-04T01:21:53;2.60;;;1.90;;
85279;SDS011;75687;40.670;21.838;2024-02-04T01:24:24;3.60;;;1.70;;
85279;SDS011;75687;40.670;21.838;2024-02-04T01:26:55;2.70;;;1.80;;
85279;SDS011;75687;40.670;21.838;2024-02-04T01:29:25;2.50;;;1.20;;
85279;SDS011;75687;40.670;21.838;2024-02-04T01:34:25;3.60;;;1.70;;
85279;SDS011;75687;40.670;21.838;2024-02-04T01:36:56;2.60;;;1.90;;
85279;SDS011;75687;40.670;21.838;2024-02-04T01:39:27;3.10;;;1.90;;
85279;SDS011;75687;40.670;21.838;2024-02-04T01:41:58;4.00;;;1.80;;
85279;SDS011;75687;40.670;21.838;2024-02-04T01:44:29;3.30;;;1.70;;
85279;SDS011;75687;40.670;21.838;2024-02-04T01:47:00;3.10;;;2.40;;
85279;SDS011;75687;40.670;21.838;2024-02-04T01:49:31;2.60;;;1.50;;
85279;SDS011;75687;40.670;21.838;2024-02-04T01:52:02;2.60;;;1.70;;
85279;SDS011;75687;40.670;21.838;2024-02-04T01:54:35;3.60;;;1.50;;
85279;SDS011;75687;40.670;21.838;2024-02-04T01:57:07;3.30;;;1.40;;
85279;SDS011;75687;40.670;21.838;2024-02-04T01:59:39;2.60;;;1.70;;
85279;SDS011;75687;40.670;21.838;2024-02-04T02:02:10;2.30;;;1.70;;
85279;SDS011;75687;40.670;21.838;2024-02-04T02:04:41;2.00;;;1.40;;
85279;SDS011;75687;40.670;21.838;2024-02-04T02:07:12;2.90;;;2.00;;
85279;SDS011;75687;40.670;21.838;2024-02-04T02:09:44;1.90;;;1.50;;
85279;SDS011;75687;40.670;21.838;2024-02-04T02:12:16;3.60;;;2.00;;
85279;SDS011;75687;40.670;21.838;2024-02-04T02:14:50;1.60;;;1.20;;
85279;SDS011;75687;40.670;21.838;2024-02-04T02:17:27;2.20;;;1.60;;
85279;SDS011;75687;40.670;21.838;2024-02-04T02:20:02;3.70;;;1.90;;
85279;SDS011;75687;40.670;21.838;2024-02-04T02:22:37;12.00;;;3.90;;
85279;SDS011;75687;40.670;21.838;2024-02-04T02:25:13;4.30;;;2.30;;
85279;SDS011;75687;40.670;21.838;2024-02-04T02:27:48;3.50;;;2.20;;
85279;SDS011;75687;40.670;21.838;2024-02-04T02:30:19;3.00;;;2.10;;
85279;SDS011;75687;40.670;21.838;2024-02-04T02:32:49;4.50;;;2.00;;
85279;SDS011;75687;40.670;21.838;2024-02-04T02:35:20;4.40;;;1.80;;
85279;SDS011;75687;40.670;21.838;2024-02-04T02:37:52;2.00;;;1.20;;
85279;SDS011;75687;40.670;21.838;2024-02-04T02:40:27;3.10;;;1.70;;
85279;SDS011;75687;40.670;21.838;2024-02-04T02:43:01;3.00;;;1.30;;
85279;SDS011;75687;40.670;21.838;2024-02-04T02:45:32;3.60;;;1.80;;
85279;SDS011;75687;40.670;21.838;2024-02-04T02:48:04;4.60;;;2.40;;
85279;SDS011;75687;40.670;21.838;2024-02-04T02:50:37;11.00;;;4.10;;
85279;SDS011;75687;40.670;21.838;2024-02-04T02:53:08;4.90;;;2.40;;
85279;SDS011;75687;40.670;21.838;2024-02-04T02:55:38;4.50;;;2.00;;
85279;SDS011;75687;40.670;21.838;2024-02-04T02:58:09;6.50;;;2.70;;
85279;SDS011;75687;40.670;21.838;2024-02-04T03:00:40;3.30;;;1.90;;
85279;SDS011;75687;40.670;21.838;2024-02-04T03:03:10;2.60;;;1.80;;
85279;SDS011;75687;40.670;21.838;2024-02-04T03:05:41;3.80;;;2.20;;
85279;SDS011;75687;40.670;21.838;2024-02-04T03:08:11;7.50;;;3.60;;
85279;SDS011;75687;40.670;21.838;2024-02-04T03:10:44;4.20;;;2.40;;
85279;SDS011;75687;40.670;21.838;2024-02-04T03:13:14;4.30;;;2.40;;
85279;SDS011;75687;40.670;21.838;2024-02-04T03:15:45;4.50;;;2.30;;
85279;SDS011;75687;40.670;21.838;2024-02-04T03:18:15;3.90;;;2.30;;
85279;SDS011;75687;40.670;21.838;2024-02-04T03:20:46;4.20;;;2.50;;
85279;SDS011;75687;40.670;21.838;2024-02-04T03:23:17;4.10;;;2.60;;
85279;SDS011;75687;40.670;21.838;2024-02-04T03:25:47;2.80;;;1.80;;
85279;SDS011;75687;40.670;21.838;2024-02-04T03:28:18;3.10;;;2.20;;
85279;SDS011;75687;40.670;21.838;2024-02-04T03:30:49;3.30;;;2.00;;
85279;SDS011;75687;40.670;21.838;2024-02-04T03:33:19;4.30;;;2.60;;
85279;SDS011;75687;40.670;21.838;2024-02-04T03:35:50;6.30;;;3.30;;
85279;SDS011;75687;40.670;21.838;2024-02-04T03:38:21;9.30;;;3.30;;
85279;SDS011;75687;40.670;21.838;2024-02-04T03:40:52;6.20;;;3.00;;
85279;SDS011;75687;40.670;21.838;2024-02-04T03:43:23;6.30;;;3.10;;
85279;SDS011;75687;40.670;21.838;2024-02-04T03:45:53;4.90;;;2.90;;
85279;SDS011;75687;40.670;21.838;2024-02-04T03:50:53;8.40;;;3.20;;
85279;SDS011;75687;40.670;21.838;2024-02-04T03:53:24;13.90;;;4.00;;
85279;SDS011;75687;40.670;21.838;2024-02-04T03:55:54;12.10;;;4.20;;
85279;SDS011;75687;40.670;21.838;2024-02-04T03:58:25;3.80;;;2.40;;
85279;SDS011;75687;40.670;21.838;2024-02-04T04:00:57;4.50;;;2.40;;
85279;SDS011;75687;40.670;21.838;2024-02-04T04:03:28;3.90;;;2.40;;
85279;SDS011;75687;40.670;21.838;2024-02-04T04:05:59;4.00;;;2.40;;
85279;SDS011;75687;40.670;21.838;2024-02-04T04:08:29;5.30;;;1.90;;
85279;SDS011;75687;40.670;21.838;2024-02-04T04:11:00;3.30;;;2.10;;
85279;SDS011;75687;40.670;21.838;2024-02-04T04:13:31;2.70;;;1.80;;
85279;SDS011;75687;40.670;21.838;2024-02-04T04:16:03;2.20;;;1.90;;
85279;SDS011;75687;40.670;21.838;2024-02-04T04:18:34;5.50;;;2.00;;
85279;SDS011;75687;40.670;21.838;2024-02-04T04:21:05;4.70;;;1.90;;
85279;SDS011;75687;40.670;21.838;2024-02-04T04:23:35;4.90;;;1.80;;
85279;SDS011;75687;40.670;21.838;2024-02-04T04:26:54;3.80;;;2.00;;
85279;SDS011;75687;40.670;21.838;2024-02-04T04:31:55;3.50;;;2.20;;
85279;SDS011;75687;40.670;21.838;2024-02-04T04:34:25;3.10;;;2.30;;
85279;SDS011;75687;40.670;21.838;2024-02-04T04:36:57;3.80;;;2.80;;
85279;SDS011;75687;40.670;21.838;2024-02-04T04:39:28;2.60;;;1.80;;
85279;SDS011;75687;40.670;21.838;2024-02-04T04:41:58;2.50;;;1.90;;
85279;SDS011;75687;40.670;21.838;2024-02-04T04:46:58;3.30;;;2.00;;
85279;SDS011;75687;40.670;21.838;2024-02-04T04:49:29;5.40;;;1.80;;
85279;SDS011;75687;40.670;21.838;2024-02-04T04:51:59;3.50;;;2.30;;
85279;SDS011;75687;40.670;21.838;2024-02-04T04:54:30;4.90;;;1.90;;
85279;SDS011;75687;40.670;21.838;2024-02-04T04:57:00;2.00;;;1.70;;
85279;SDS011;75687;40.670;21.838;2024-02-04T04:59:31;2.50;;;1.90;;
85279;SDS011;75687;40.670;21.838;2024-02-04T05:04:30;3.20;;;1.70;;
85279;SDS011;75687;40.670;21.838;2024-02-04T05:07:01;3.00;;;2.20;;
85279;SDS011;75687;40.670;21.838;2024-02-04T05:09:32;3.20;;;1.30;;
85279;SDS011;75687;40.670;21.838;2024-02-04T05:14:32;3.50;;;1.50;;
85279;SDS011;75687;40.670;21.838;2024-02-04T05:17:03;2.80;;;1.80;;
85279;SDS011;75687;40.670;21.838;2024-02-04T05:19:34;3.80;;;2.20;;
85279;SDS011;75687;40.670;21.838;2024-02-04T05:22:05;3.40;;;1.80;;
85279;SDS011;75687;40.670;21.838;2024-02-04T05:24:35;6.10;;;1.70;;
85279;SDS011;75687;40.670;21.838;2024-02-04T05:27:05;3.20;;;2.10;;
85279;SDS011;75687;40.670;21.838;2024-02-04T05:29:36;3.00;;;2.20;;
85279;SDS011;75687;40.670;21.838;2024-02-04T05:32:06;3.70;;;1.90;;
85279;SDS011;75687;40.670;21.838;2024-02-04T05:34:37;3.00;;;1.90;;
85279;SDS011;75687;40.670;21.838;2024-02-04T05:37:08;3.90;;;2.40;;
85279;SDS011;75687;40.670;21.838;2024-02-04T05:39:38;6.00;;;2.90;;
85279;SDS011;75687;40.670;21.838;2024-02-04T05:42:09;2.90;;;2.50;;
85279;SDS011;75687;40.670;21.838;2024-02-04T05:44:39;3.30;;;2.10;;
85279;SDS011;75687;40.670;21.838;2024-02-04T05:47:09;4.00;;;1.90;;
85279;SDS011;75687;40.670;21.838;2024-02-04T05:49:40;5.90;;;2.70;;
85279;SDS011;75687;40.670;21.838;2024-02-04T05:52:11;3.70;;;2.30;;
85279;SDS011;75687;40.670;21.838;2024-02-04T05:54:43;4.90;;;2.90;;
85279;SDS011;75687;40.670;21.838;2024-02-04T05:57:13;6.70;;;3.40;;
85279;SDS011;75687;40.670;21.838;2024-02-04T05:59:44;4.00;;;2.60;;
85279;SDS011;75687;40.670;21.838;2024-02-04T06:02:16;2.70;;;1.60;;
85279;SDS011;75687;40.670;21.838;2024-02-04T06:04:47;2.00;;;1.40;;
85279;SDS011;75687;40.670;21.838;2024-02-04T06:07:17;2.00;;;1.50;;
85279;SDS011;75687;40.670;21.838;2024-02-04T06:09:48;2.90;;;1.30;;
85279;SDS011;75687;40.670;21.838;2024-02-04T06:12:19;3.20;;;2.50;;
85279;SDS011;75687;40.670;21.838;2024-02-04T06:14:50;3.60;;;2.60;;
85279;SDS011;75687;40.670;21.838;2024-02-04T06:17:21;4.20;;;3.40;;
85279;SDS011;75687;40.670;21.838;2024-02-04T06:19:51;5.20;;;2.90;;
85279;SDS011;75687;40.670;21.838;2024-02-04T06:22:21;6.30;;;3.70;;
85279;SDS011;75687;40.670;21.838;2024-02-04T06:24:53;4.70;;;2.40;;
85279;SDS011;75687;40.670;21.838;2024-02-04T06:27:23;4.20;;;2.40;;
85279;SDS011;75687;40.670;21.838;2024-02-04T06:29:54;5.00;;;2.70;;
85279;SDS011;75687;40.670;21.838;2024-02-04T06:32:24;4.70;;;2.30;;
85279;SDS011;75687;40.670;21.838;2024-02-04T06:34:55;6.60;;;2.00;;
85279;SDS011;75687;40.670;21.838;2024-02-04T06:37:26;4.20;;;2.50;;
85279;SDS011;75687;40.670;21.838;2024-02-04T06:39:56;6.80;;;3.30;;
85279;SDS011;75687;40.670;21.838;2024-02-04T06:42:27;4.90;;;2.40;;
85279;SDS011;75687;40.670;21.838;2024-02-04T06:44:57;6.20;;;3.00;;
85279;SDS011;75687;40.670;21.838;2024-02-04T06:47:27;4.80;;;2.50;;
85279;SDS011;75687;40.670;21.838;2024-02-04T06:49:58;4.00;;;2.50;;
85279;SDS011;75687;40.670;21.838;2024-02-04T06:52:31;10.10;;;3.80;;
85279;SDS011;75687;40.670;21.838;2024-02-04T06:55:02;7.20;;;3.30;;
85279;SDS011;75687;40.670;21.838;2024-02-04T06:57:33;8.80;;;3.70;;
85279;SDS011;75687;40.670;21.838;2024-02-04T07:00:04;7.60;;;4.00;;
85279;SDS011;75687;40.670;21.838;2024-02-04T07:02:36;18.30;;;8.60;;
85279;SDS011;75687;40.670;21.838;2024-02-04T07:05:08;24.10;;;10.10;;
85279;SDS011;75687;40.670;21.838;2024-02-04T07:07:38;5.80;;;3.20;;
85279;SDS011;75687;40.670;21.838;2024-02-04T07:10:09;6.80;;;3.30;;
85279;SDS011;75687;40.670;21.838;2024-02-04T07:12:40;7.10;;;3.50;;
85279;SDS011;75687;40.670;21.838;2024-02-04T07:15:10;4.30;;;3.20;;
85279;SDS011;75687;40.670;21.838;2024-02-04T07:17:41;5.40;;;3.30;;
85279;SDS011;75687;40.670;21.838;2024-02-04T07:20:11;5.30;;;2.90;;
85279;SDS011;75687;40.670;21.838;2024-02-04T07:22:42;6.30;;;2.80;;
85279;SDS011;75687;40.670;21.838;2024-02-04T07:25:13;4.70;;;2.20;;
85279;SDS011;75687;40.670;21.838;2024-02-04T07:27:43;3.00;;;1.80;;
85279;SDS011;75687;40.670;21.838;2024-02-04T07:30:14;2.90;;;1.90;;
85279;SDS011;75687;40.670;21.838;2024-02-04T07:32:46;3.20;;;1.60;;
85279;SDS011;75687;40.670;21.838;2024-02-04T07:35:17;3.90;;;1.70;;
85279;SDS011;75687;40.670;21.838;2024-02-04T07:37:47;2.30;;;1.70;;
85279;SDS011;75687;40.670;21.838;2024-02-04T07:40:18;2.10;;;1.50;;
85279;SDS011;75687;40.670;21.838;2024-02-04T07:42:48;3.60;;;1.90;;
85279;SDS011;75687;40.670;21.838;2024-02-04T07:45:19;2.90;;;1.70;;
85279;SDS011;75687;40.670;21.838;2024-02-04T07:47:50;3.50;;;1.80;;
85279;SDS011;75687;40.670;21.838;2024-02-04T07:50:21;3.10;;;1.40;;
85279;SDS011;75687;40.670;21.838;2024-02-04T07:52:51;2.20;;;1.70;;
85279;SDS011;75687;40.670;21.838;2024-02-04T07:55:22;2.30;;;2.00;;
85279;SDS011;75687;40.670;21.838;2024-02-04T07:57:52;12.20;;;5.60;;
85279;SDS011;75687;40.670;21.838;2024-02-04T08:00:23;24.20;;;11.90;;
85279;SDS011;75687;40.670;21.838;2024-02-04T08:02:55;16.20;;;9.80;;
85279;SDS011;75687;40.670;21.838;2024-02-04T08:05:25;8.30;;;4.40;;
85279;SDS011;75687;40.670;21.838;2024-02-04T08:07:55;6.90;;;3.20;;
85279;SDS011;75687;40.670;21.838;2024-02-04T08:10:26;4.40;;;2.50;;
85279;SDS011;75687;40.670;21.838;2024-02-04T08:12:56;3.70;;;2.50;;
85279;SDS011;75687;40.670;21.838;2024-02-04T08:15:27;4.70;;;3.20;;
85279;SDS011;75687;40.670;21.838;2024-02-04T08:17:57;6.10;;;3.00;;
85279;SDS011;75687;40.670;21.838;2024-02-04T08:20:28;4.10;;;2.00;;
85279;SDS011;75687;40.670;21.838;2024-02-04T08:22:58;9.80;;;3.80;;
85279;SDS011;75687;40.670;21.838;2024-02-04T08:25:28;7.60;;;3.90;;
85279;SDS011;75687;40.670;21.838;2024-02-04T08:28:01;6.90;;;3.70;;
85279;SDS011;75687;40.670;21.838;2024-02-04T08:30:32;6.00;;;3.80;;
85279;SDS011;75687;40.670;21.838;2024-02-04T08:33:04;6.70;;;3.70;;
85279;SDS011;75687;40.670;21.838;2024-02-04T08:35:37;6.80;;;4.10;;
85279;SDS011;75687;40.670;21.838;2024-02-04T08:38:07;9.60;;;3.30;;
85279;SDS011;75687;40.670;21.838;2024-02-04T08:40:37;5.60;;;3.20;;
85279;SDS011;75687;40.670;21.838;2024-02-04T08:43:08;5.50;;;3.30;;
85279;SDS011;75687;40.670;21.838;2024-02-04T08:45:39;5.40;;;3.10;;
85279;SDS011;75687;40.670;21.838;2024-02-04T08:48:09;3.90;;;2.50;;
85279;SDS011;75687;40.670;21.838;2024-02-04T08:50:39;5.50;;;2.10;;
85279;SDS011;75687;40.670;21.838;2024-02-04T08:53:10;4.40;;;1.70;;
85279;SDS011;75687;40.670;21.838;2024-02-04T08:55:41;3.30;;;1.40;;
85279;SDS011;75687;40.670;21.838;2024-02-04T08:58:11;3.40;;;1.40;;
85279;SDS011;75687;40.670;21.838;2024-02-04T09:00:41;6.30;;;3.20;;
85279;SDS011;75687;40.670;21.838;2024-02-04T09:03:11;6.60;;;4.00;;
85279;SDS011;75687;40.670;21.838;2024-02-04T09:05:42;7.00;;;3.30;;
85279;SDS011;75687;40.670;21.838;2024-02-04T09:08:13;3.80;;;2.30;;
85279;SDS011;75687;40.670;21.838;2024-02-04T09:10:43;7.60;;;5.00;;
85279;SDS011;75687;40.670;21.838;2024-02-04T09:13:14;6.30;;;4.30;;
85279;SDS011;75687;40.670;21.838;2024-02-04T09:15:44;7.10;;;2.80;;
85279;SDS011;75687;40.670;21.838;2024-02-04T09:18:14;6.10;;;3.40;;
85279;SDS011;75687;40.670;21.838;2024-02-04T09:20:45;10.00;;;5.00;;
85279;SDS011;75687;40.670;21.838;2024-02-04T09:23:16;9.70;;;4.40;;
85279;SDS011;75687;40.670;21.838;2024-02-04T09:25:46;7.90;;;3.40;;
85279;SDS011;75687;40.670;21.838;2024-02-04T09:28:17;8.60;;;4.30;;
85279;SDS011;75687;40.670;21.838;2024-02-04T09:30:47;6.00;;;3.00;;
85279;SDS011;75687;40.670;21.838;2024-02-04T09:33:18;6.50;;;3.40;;
85279;SDS011;75687;40.670;21.838;2024-02-04T09:35:48;10.90;;;6.60;;
85279;SDS011;75687;40.670;21.838;2024-02-04T09:38:19;6.70;;;4.50;;
85279;SDS011;75687;40.670;21.838;2024-02-04T09:40:50;5.30;;;3.10;;
85279;SDS011;75687;40.670;21.838;2024-02-04T09:43:21;4.30;;;2.90;;
85279;SDS011;75687;40.670;21.838;2024-02-04T09:45:52;5.10;;;2.80;;
85279;SDS011;75687;40.670;21.838;2024-02-04T09:48:22;4.60;;;2.40;;
85279;SDS011;75687;40.670;21.838;2024-02-04T09:50:53;3.50;;;2.10;;
85279;SDS011;75687;40.670;21.838;2024-02-04T09:53:26;3.80;;;2.00;;
85279;SDS011;75687;40.670;21.838;2024-02-04T09:56:02;4.40;;;1.90;;
85279;SDS011;75687;40.670;21.838;2024-02-04T09:58:35;5.50;;;2.10;;
85279;SDS011;75687;40.670;21.838;2024-02-04T10:01:06;4.30;;;1.90;;
85279;SDS011;75687;40.670;21.838;2024-02-04T10:03:37;3.90;;;1.70;;
85279;SDS011;75687;40.670;21.838;2024-02-04T10:06:07;3.60;;;2.20;;
85279;SDS011;75687;40.670;21.838;2024-02-04T10:08:38;2.40;;;1.40;;
85279;SDS011;75687;40.670;21.838;2024-02-04T10:11:09;4.10;;;2.20;;
85279;SDS011;75687;40.670;21.838;2024-02-04T10:13:43;2.90;;;1.90;;
85279;SDS011;75687;40.670;21.838;2024-02-04T10:16:14;5.80;;;2.40;;
85279;SDS011;75687;40.670;21.838;2024-02-04T10:18:45;6.00;;;3.10;;
85279;SDS011;75687;40.670;21.838;2024-02-04T10:21:17;5.70;;;3.90;;
85279;SDS011;75687;40.670;21.838;2024-02-04T10:23:49;2.80;;;2.00;;
85279;SDS011;75687;40.670;21.838;2024-02-04T10:26:19;2.50;;;1.70;;
85279;SDS011;75687;40.670;21.838;2024-02-04T10:28:50;4.90;;;2.90;;
85279;SDS011;75687;40.670;21.838;2024-02-04T10:31:21;5.50;;;2.90;;
85279;SDS011;75687;40.670;21.838;2024-02-04T10:33:53;4.00;;;3.00;;
85279;SDS011;75687;40.670;21.838;2024-02-04T10:36:24;3.60;;;2.30;;
85279;SDS011;75687;40.670;21.838;2024-02-04T10:38:55;3.40;;;2.20;;
85279;SDS011;75687;40.670;21.838;2024-02-04T10:41:25;5.80;;;3.20;;
85279;SDS011;75687;40.670;21.838;2024-02-04T10:43:56;2.70;;;1.70;;
85279;SDS011;75687;40.670;21.838;2024-02-04T10:46:29;6.90;;;2.30;;
85279;SDS011;75687;40.670;21.838;2024-02-04T10:49:00;4.30;;;2.40;;
85279;SDS011;75687;40.670;21.838;2024-02-04T10:51:32;1.70;;;1.30;;
85279;SDS011;75687;40.670;21.838;2024-02-04T10:54:04;4.70;;;2.00;;
85279;SDS011;75687;40.670;21.838;2024-02-04T10:56:36;3.70;;;1.50;;
85279;SDS011;75687;40.670;21.838;2024-02-04T10:59:09;2.60;;;1.30;;
85279;SDS011;75687;40.670;21.838;2024-02-04T11:01:40;4.00;;;1.50;;
85279;SDS011;75687;40.670;21.838;2024-02-04T11:04:11;2.50;;;1.50;;
85279;SDS011;75687;40.670;21.838;2024-02-04T11:06:41;2.10;;;1.30;;
85279;SDS011;75687;40.670;21.838;2024-02-04T11:09:12;2.10;;;1.40;;
85279;SDS011;75687;40.670;21.838;2024-02-04T11:11:43;4.40;;;2.10;;
85279;SDS011;75687;40.670;21.838;2024-02-04T11:14:15;4.30;;;1.80;;
85279;SDS011;75687;40.670;21.838;2024-02-04T11:16:56;2.00;;;1.20;;
85279;SDS011;75687;40.670;21.838;2024-02-04T11:19:37;2.60;;;1.60;;
85279;SDS011;75687;40.670;21.838;2024-02-04T11:22:28;2.20;;;1.60;;
85279;SDS011;75687;40.670;21.838;2024-02-04T11:25:24;2.20;;;1.40;;
85279;SDS011;75687;40.670;21.838;2024-02-04T11:28:05;2.80;;;1.50;;
85279;SDS011;75687;40.670;21.838;2024-02-04T11:30:37;1.60;;;1.20;;
85279;SDS011;75687;40.670;21.838;2024-02-04T11:33:09;2.70;;;1.70;;
85279;SDS011;75687;40.670;21.838;2024-02-04T11:35:40;2.50;;;1.70;;
85279;SDS011;75687;40.670;21.838;2024-02-04T11:38:11;2.30;;;1.30;;
85279;SDS011;75687;40.670;21.838;2024-02-04T11:40:43;3.20;;;1.90;;
85279;SDS011;75687;40.670;21.838;2024-02-04T11:43:15;3.80;;;2.40;;
85279;SDS011;75687;40.670;21.838;2024-02-04T11:45:46;5.20;;;2.90;;
85279;SDS011;75687;40.670;21.838;2024-02-04T11:48:17;7.70;;;2.40;;
85279;SDS011;75687;40.670;21.838;2024-02-04T11:50:53;3.50;;;2.00;;
85279;SDS011;75687;40.670;21.838;2024-02-04T11:53:24;2.60;;;1.60;;
85279;SDS011;75687;40.670;21.838;2024-02-04T11:55:58;4.80;;;2.30;;
85279;SDS011;75687;40.670;21.838;2024-02-04T11:58:31;2.90;;;1.80;;
85279;SDS011;75687;40.670;21.838;2024-02-04T12:01:03;6.70;;;2.70;;
85279;SDS011;75687;40.670;21.838;2024-02-04T12:03:34;3.80;;;1.90;;
85279;SDS011;75687;40.670;21.838;2024-02-04T12:06:05;2.90;;;1.90;;
85279;SDS011;75687;40.670;21.838;2024-02-04T12:08:37;4.70;;;1.50;;
85279;SDS011;75687;40.670;21.838;2024-02-04T12:11:08;3.70;;;2.00;;
85279;SDS011;75687;40.670;21.838;2024-02-04T12:13:38;3.20;;;2.70;;
85279;SDS011;75687;40.670;21.838;2024-02-04T12:16:10;2.80;;;1.60;;
85279;SDS011;75687;40.670;21.838;2024-02-04T12:18:48;3.70;;;1.90;;
85279;SDS011;75687;40.670;21.838;2024-02-04T12:21:19;3.00;;;1.50;;
85279;SDS011;75687;40.670;21.838;2024-02-04T12:23:49;5.90;;;1.50;;
85279;SDS011;75687;40.670;21.838;2024-02-04T12:26:20;3.00;;;1.70;;
85279;SDS011;75687;40.670;21.838;2024-02-04T12:28:52;4.10;;;2.40;;
85279;SDS011;75687;40.670;21.838;2024-02-04T12:31:24;2.20;;;1.30;;
85279;SDS011;75687;40.670;21.838;2024-02-04T12:33:57;4.40;;;2.10;;
85279;SDS011;75687;40.670;21.838;2024-02-04T12:36:29;3.70;;;2.00;;
85279;SDS011;75687;40.670;21.838;2024-02-04T12:39:01;3.00;;;1.70;;
85279;SDS011;75687;40.670;21.838;2024-02-04T12:41:32;5.00;;;2.30;;
85279;SDS011;75687;40.670;21.838;2024-02-04T12:44:02;1.90;;;1.20;;
85279;SDS011;75687;40.670;21.838;2024-02-04T12:46:33;2.30;;;1.20;;
85279;SDS011;75687;40.670;21.838;2024-02-04T12:49:04;3.00;;;1.40;;
85279;SDS011;75687;40.670;21.838;2024-02-04T12:51:34;2.70;;;1.60;;
85279;SDS011;75687;40.670;21.838;2024-02-04T12:54:07;3.40;;;1.90;;
85279;SDS011;75687;40.670;21.838;2024-02-04T12:56:42;2.90;;;1.50;;
85279;SDS011;75687;40.670;21.838;2024-02-04T12:59:24;3.80;;;2.10;;
85279;SDS011;75687;40.670;21.838;2024-02-04T13:01:55;2.90;;;1.50;;
85279;SDS011;75687;40.670;21.838;2024-02-04T13:04:26;4.10;;;1.60;;
85279;SDS011;75687;40.670;21.838;2024-02-04T13:07:05;4.80;;;2.90;;
85279;SDS011;75687;40.670;21.838;2024-02-04T13:09:38;5.00;;;2.60;;
85279;SDS011;75687;40.670;21.838;2024-02-04T13:12:09;4.50;;;2.90;;
85279;SDS011;75687;40.670;21.838;2024-02-04T13:14:41;2.90;;;1.80;;
85279;SDS011;75687;40.670;21.838;2024-02-04T13:17:12;2.90;;;1.80;;
85279;SDS011;75687;40.670;21.838;2024-02-04T13:19:43;5.50;;;2.60;;
85279;SDS011;75687;40.670;21.838;2024-02-04T13:22:14;4.40;;;2.20;;
85279;SDS011;75687;40.670;21.838;2024-02-04T13:24:45;3.60;;;1.80;;
85279;SDS011;75687;40.670;21.838;2024-02-04T13:27:16;4.20;;;2.70;;
85279;SDS011;75687;40.670;21.838;2024-02-04T13:29:46;3.20;;;1.80;;
85279;SDS011;75687;40.670;21.838;2024-02-04T13:32:18;13.50;;;5.10;;
85279;SDS011;75687;40.670;21.838;2024-02-04T13:34:48;6.50;;;3.30;;
85279;SDS011;75687;40.670;21.838;2024-02-04T13:37:27;4.20;;;2.70;;
85279;SDS011;75687;40.670;21.838;2024-02-04T13:39:57;4.50;;;2.60;;
85279;SDS011;75687;40.670;21.838;2024-02-04T13:42:28;3.30;;;2.50;;
85279;SDS011;75687;40.670;21.838;2024-02-04T13:44:59;2.80;;;1.90;;
85279;SDS011;75687;40.670;21.838;2024-02-04T13:47:31;3.10;;;1.70;;
85279;SDS011;75687;40.670;21.838;2024-02-04T13:50:01;2.70;;;1.60;;
85279;SDS011;75687;40.670;21.838;2024-02-04T13:52:32;2.60;;;1.60;;
85279;SDS011;75687;40.670;21.838;2024-02-04T13:55:03;4.60;;;2.00;;
85279;SDS011;75687;40.670;21.838;2024-02-04T13:57:35;3.80;;;2.10;;
85279;SDS011;75687;40.670;21.838;2024-02-04T14:00:07;3.30;;;2.20;;
85279;SDS011;75687;40.670;21.838;2024-02-04T14:02:38;4.00;;;2.30;;
85279;SDS011;75687;40.670;21.838;2024-02-04T14:05:09;3.90;;;2.20;;
85279;SDS011;75687;40.670;21.838;2024-02-04T14:07:39;4.60;;;2.40;;
85279;SDS011;75687;40.670;21.838;2024-02-04T14:10:09;5.00;;;2.40;;
85279;SDS011;75687;40.670;21.838;2024-02-04T14:12:42;5.70;;;3.50;;
85279;SDS011;75687;40.670;21.838;2024-02-04T14:15:13;4.30;;;2.10;;
85279;SDS011;75687;40.670;21.838;2024-02-04T14:17:44;8.30;;;4.60;;
85279;SDS011;75687;40.670;21.838;2024-02-04T14:20:16;3.50;;;2.10;;
85279;SDS011;75687;40.670;21.838;2024-02-04T14:22:47;2.70;;;1.80;;
85279;SDS011;75687;40.670;21.838;2024-02-04T14:25:17;3.30;;;2.10;;
85279;SDS011;75687;40.670;21.838;2024-02-04T14:27:48;3.50;;;2.20;;
85279;SDS011;75687;40.670;21.838;2024-02-04T14:30:19;2.40;;;1.60;;
85279;SDS011;75687;40.670;21.838;2024-02-04T14:32:49;3.10;;;2.00;;
85279;SDS011;75687;40.670;21.838;2024-02-04T14:35:20;5.20;;;2.80;;
85279;SDS011;75687;40.670;21.838;2024-02-04T14:37:50;3.50;;;2.60;;
85279;SDS011;75687;40.670;21.838;2024-02-04T14:40:21;3.70;;;2.70;;
85279;SDS011;75687;40.670;21.838;2024-02-04T14:42:52;4.80;;;3.30;;
85279;SDS011;75687;40.670;21.838;2024-02-04T14:45:22;4.30;;;3.10;;
85279;SDS011;75687;40.670;21.838;2024-02-04T14:47:53;8.10;;;3.40;;
85279;SDS011;75687;40.670;21.838;2024-02-04T14:50:23;5.30;;;3.00;;
85279;SDS011;75687;40.670;21.838;2024-02-04T14:52:54;4.30;;;2.70;;
85279;SDS011;75687;40.670;21.838;2024-02-04T14:55:25;3.70;;;2.30;;
85279;SDS011;75687;40.670;21.838;2024-02-04T14:57:55;4.40;;;2.60;;
85279;SDS011;75687;40.670;21.838;2024-02-04T15:00:26;5.20;;;2.50;;
85279;SDS011;75687;40.670;21.838;2024-02-04T15:02:57;5.20;;;3.50;;
85279;SDS011;75687;40.670;21.838;2024-02-04T15:05:28;7.20;;;4.80;;
85279;SDS011;75687;40.670;21.838;2024-02-04T15:07:58;10.70;;;5.30;;
85279;SDS011;75687;40.670;21.838;2024-02-04T15:10:29;8.40;;;4.80;;
85279;SDS011;75687;40.670;21.838;2024-02-04T15:13:00;7.50;;;4.00;;
85279;SDS011;75687;40.670;21.838;2024-02-04T15:15:33;7.40;;;5.00;;
85279;SDS011;75687;40.670;21.838;2024-02-04T15:18:04;5.20;;;3.50;;